Time;durP1;ratioP1;P1;durP2;ratioP2;P2;SDS_P1;SDS_P2;PMS_P1;PMS_P2;Temp;Humidity;BMP_temperature;BMP_pressure;BME280_temperature;BME280_humidity;BME280_pressure;Samples;Min_cycle;Max_cycle;Signal;HPM_P1;HPM_P2
2022/08/11 00:02:33;;;;;;;11.15;6.62;;;;;;;11.75;98.49;98819.09;1726955;81;28273;-81
2022/08/11 00:05:09;;;;;;;12.23;6.75;;;;;;;11.70;96.63;98815.00;1693545;83;21117;-82
2022/08/11 00:07:45;;;;;;;11.68;6.92;;;;;;;11.66;96.42;98815.81;1676549;85;21301;-86
2022/08/11 00:10:14;;;;;;;13.25;6.17;;;;;;;11.69;95.32;98817.44;1661019;85;21103;-82
2022/08/11 00:12:41;;;;;;;8.90;6.08;;;;;;;11.69;94.70;98817.44;1672279;85;21061;-85
2022/08/11 00:15:08;;;;;;;9.80;6.30;;;;;;;11.66;95.56;98818.53;1642374;85;21594;-85
2022/08/11 00:17:34;;;;;;;12.40;7.47;;;;;;;11.61;97.56;98815.25;1672086;85;21065;-85
2022/08/11 00:20:10;;;;;;;10.53;7.28;;;;;;;11.57;100.00;98810.91;1671948;85;21109;-86
2022/08/11 00:22:39;;;;;;;11.63;7.00;;;;;;;11.56;98.06;98809.27;1672008;85;22373;-85
2022/08/11 00:25:18;;;;;;;;;;;;;;;11.55;98.06;98814.44;1674861;85;21199;-85
2022/08/11 00:27:46;;;;;;;10.48;5.50;;;;;;;11.47;98.44;98809.52;1671915;85;20959;-82
2022/08/11 00:30:12;;;;;;;10.58;5.95;;;;;;;11.45;97.38;98818.98;1671695;85;21052;-86
2022/08/11 00:32:41;;;;;;;10.20;6.60;;;;;;;11.44;99.42;98812.75;1690993;84;21278;-86
2022/08/11 00:35:13;;;;;;;12.15;6.65;;;;;;;11.45;99.86;98810.84;1727465;81;21514;-85
2022/08/11 00:37:39;;;;;;;8.68;5.95;;;;;;;11.46;99.67;98817.39;1691188;84;21169;-82
2022/08/11 00:40:09;;;;;;;11.55;5.95;;;;;;;11.48;99.59;98817.13;1668372;85;20878;-86
2022/08/11 00:42:43;;;;;;;10.25;6.58;;;;;;;11.46;99.52;98807.08;1637085;86;21144;-82
2022/08/11 00:45:29;;;;;;;8.88;5.40;;;;;;;11.48;99.14;98821.19;1722038;83;21109;-82
2022/08/11 00:48:16;;;;;;;9.93;5.62;;;;;;;11.46;98.33;98817.39;1721960;82;21084;-85
2022/08/11 00:51:10;;;;;;;11.63;6.35;;;;;;;11.42;98.51;98815.45;1721691;83;21057;-85
2022/08/11 00:53:51;;;;;;;11.93;5.62;;;;;;;11.30;97.55;98815.16;1721970;82;21172;-86
2022/08/11 00:56:47;;;;;;;11.95;6.47;;;;;;;11.25;98.76;98809.69;1728720;82;21608;-81
2022/08/11 00:59:56;;;;;;;10.43;6.28;;;;;;;11.22;99.50;98803.45;1722785;82;21073;-82
2022/08/11 01:02:46;;;;;;;9.38;6.15;;;;;;;11.21;100.00;98801.82;1726096;82;21043;-82
2022/08/11 01:05:37;;;;;;;8.95;5.78;;;;;;;11.18;100.00;98797.45;1693079;83;21469;-82
2022/08/11 01:08:43;;;;;;;10.20;5.80;;;;;;;11.15;99.85;98796.09;1689845;84;21502;-86
2022/08/11 01:11:17;;;;;;;7.83;4.72;;;;;;;11.12;99.79;98795.27;1691601;83;21141;-85
2022/08/11 01:14:08;;;;;;;11.40;6.97;;;;;;;11.14;99.20;98795.00;1726912;83;21134;-85
2022/08/11 01:16:52;;;;;;;8.65;5.65;;;;;;;11.11;99.69;98800.42;1726507;82;20975;-81
2022/08/11 01:19:44;;;;;;;9.70;6.10;;;;;;;11.09;99.27;98797.14;1726885;83;21228;-81
2022/08/11 01:22:18;;;;;;;9.15;5.67;;;;;;;11.05;98.91;98796.59;1711645;83;21593;-85
2022/08/11 01:25:07;;;;;;;10.53;5.50;;;;;;;11.03;99.87;98798.75;1720627;83;21565;-85
2022/08/11 01:27:50;;;;;;;8.80;5.30;;;;;;;11.00;98.27;98802.25;1719537;82;21038;-82
2022/08/11 01:30:54;;;;;;;9.63;5.78;;;;;;;10.95;99.10;98794.10;1704883;83;21089;-83
2022/08/11 01:34:11;;;;;;;14.18;5.47;;;;;;;10.92;100.00;98793.80;1727401;82;21018;-81
2022/08/11 01:36:59;;;;;;;9.73;5.62;;;;;;;10.93;99.95;98785.39;1726085;83;20975;-85
2022/08/11 01:40:00;;;;;;;9.37;6.10;;;;;;;10.92;99.34;98789.19;1727304;82;21724;-82
2022/08/11 01:46:15;;;;;;;7.42;4.95;;;;;;;10.79;100.00;98788.31;1711605;83;21445;-81
2022/08/11 01:49:12;;;;;;;12.10;5.47;;;;;;;10.74;100.00;98786.91;1703087;82;21529;-82
2022/08/11 01:52:17;;;;;;;8.65;5.17;;;;;;;10.73;100.00;98787.45;1727839;81;21144;-81
2022/08/11 01:54:57;;;;;;;11.63;7.30;;;;;;;10.74;100.00;98788.27;1662196;85;21110;-85
2022/08/11 01:57:39;;;;;;;11.03;5.97;;;;;;;10.66;100.00;98792.28;1687820;84;21321;-85
2022/08/11 02:00:18;;;;;;;9.35;6.05;;;;;;;10.43;99.67;98784.56;1726248;82;21075;-85
2022/08/11 02:03:08;;;;;;;;;;;;;;;10.43;99.67;98784.56;1693815;84;21082;-82
2022/08/11 02:06:53;;;;;;;6.58;4.67;;;;;;;10.36;99.67;98784.78;1729173;81;20191;-85
2022/08/11 02:08:57;;;;;;;9.28;5.58;;;;;;;10.36;99.67;98784.78;1726176;82;21122;-85
2022/08/11 02:11:30;;;;;;;7.75;4.97;;;;;;;10.38;99.22;98787.22;1725963;82;21550;-81
2022/08/11 02:14:19;;;;;;;7.95;5.37;;;;;;;10.24;100.00;98790.08;1705432;83;21071;-81
2022/08/11 02:17:14;;;;;;;9.40;5.20;;;;;;;10.20;100.00;98791.12;1720274;83;21049;-85
2022/08/11 02:26:02;;;;;;;9.90;6.12;;;;;;;10.16;100.00;98788.09;1713164;83;21055;-81
2022/08/11 02:28:42;;;;;;;8.98;5.67;;;;;;;10.18;98.42;98794.63;1720216;82;20973;-85
2022/08/11 02:34:33;;;;;;;7.67;4.65;;;;;;;10.16;100.00;98788.63;1691341;84;21133;-85
2022/08/11 02:37:33;;;;;;;8.90;4.80;;;;;;;10.18;98.73;98796.80;1726959;82;21161;-85
2022/08/11 02:40:19;;;;;;;8.95;5.95;;;;;;;10.24;98.55;98796.31;1727237;83;21288;-85
2022/08/11 02:43:09;;;;;;;7.60;5.05;;;;;;;10.25;100.00;98793.88;1672132;84;21079;-85
2022/08/11 02:45:55;;;;;;;9.13;5.80;;;;;;;10.25;100.00;98793.88;1727129;83;21642;-82
2022/08/11 02:51:40;;;;;;;6.72;4.45;;;;;;;10.16;100.00;98788.09;1727376;82;21066;-85
2022/08/11 02:54:16;;;;;;;;;;;;;;;10.18;100.00;98791.38;1729384;82;21105;-81
2022/08/11 02:57:11;;;;;;;11.08;5.20;;;;;;;10.15;100.00;98795.94;1725558;82;20648;-85
2022/08/11 03:00:07;;;;;;;6.60;4.67;;;;;;;10.09;100.00;98792.92;1737683;82;21034;-82
2022/08/11 03:02:50;;;;;;;9.33;4.87;;;;;;;9.98;100.00;98793.08;1720985;82;21580;-82
2022/08/11 03:05:55;;;;;;;7.37;4.87;;;;;;;9.97;100.00;98796.32;1722756;81;21065;-85
2022/08/11 03:08:51;;;;;;;10.38;4.97;;;;;;;9.97;100.00;98801.73;1726579;82;21095;-85
2022/08/11 03:18:13;;;;;;;13.03;5.47;;;;;;;9.90;98.91;98804.64;1720415;82;21097;-81
2022/08/11 03:21:03;;;;;;;8.30;4.83;;;;;;;9.85;100.00;98802.45;1721799;82;21466;-85
2022/08/11 03:24:06;;;;;;;8.85;5.10;;;;;;;9.83;100.00;98796.48;1691434;84;21199;-85
2022/08/11 03:26:44;;;;;;;7.53;4.78;;;;;;;9.84;99.69;98804.34;1691226;83;21352;-82
2022/08/11 03:29:48;;;;;;;7.35;5.20;;;;;;;9.84;99.13;98805.69;1711606;82;21044;-82
2022/08/11 03:32:28;;;;;;;7.15;5.08;;;;;;;9.83;100.00;98802.70;1708354;82;21027;-81
2022/08/11 03:34:54;;;;;;;11.45;5.30;;;;;;;9.86;100.00;98798.66;1727209;83;21046;-81
2022/08/11 03:37:53;;;;;;;9.18;4.80;;;;;;;9.85;100.00;98797.84;1691053;84;21116;-85
2022/08/11 03:43:57;;;;;;;8.83;5.47;;;;;;;9.82;100.00;98795.63;1697852;84;21027;-81
2022/08/11 03:47:02;;;;;;;10.78;5.10;;;;;;;9.81;100.00;98798.59;1726629;82;21457;-85
2022/08/11 03:50:13;;;;;;;8.05;5.58;;;;;;;9.77;100.00;98794.78;1691050;84;21507;-81
2022/08/11 03:53:36;;;;;;;14.75;6.12;;;;;;;9.75;100.00;98795.05;1727132;82;21748;-81
2022/08/11 03:56:23;;;;;;;13.25;6.10;;;;;;;9.75;100.00;98789.63;1729195;82;21063;-84
2022/08/11 03:59:17;;;;;;;9.40;6.42;;;;;;;9.76;100.00;98793.16;1691307;84;21190;-85
2022/08/11 04:02:14;;;;;;;7.83;5.30;;;;;;;9.73;100.00;98790.40;1718088;83;21042;-85
2022/08/11 04:05:10;;;;;;;11.20;6.20;;;;;;;9.69;100.00;98787.13;1726515;83;21570;-85
2022/08/11 04:08:13;;;;;;;9.10;5.35;;;;;;;9.71;100.00;98786.33;1718032;83;21073;-81
2022/08/11 04:11:24;;;;;;;8.50;5.85;;;;;;;9.73;99.65;98786.34;1715425;82;21036;-85
2022/08/11 04:17:49;;;;;;;9.85;5.90;;;;;;;9.80;100.00;98786.14;1726942;83;20976;-82
2022/08/11 04:20:31;;;;;;;9.43;5.70;;;;;;;9.82;100.00;98786.16;1634972;86;21125;-81
2022/08/11 04:23:34;;;;;;;15.50;5.83;;;;;;;9.86;100.00;98785.94;1727031;82;21311;-85
2022/08/11 04:26:49;;;;;;;10.35;5.87;;;;;;;9.88;100.00;98783.78;1724150;83;21102;-81
2022/08/11 04:30:02;;;;;;;9.10;5.40;;;;;;;9.91;100.00;98786.51;1727615;82;20953;-85
2022/08/11 04:33:03;;;;;;;11.45;6.45;;;;;;;9.84;100.00;98775.91;1697322;83;21296;-85
2022/08/11 04:35:53;;;;;;;8.45;5.37;;;;;;;9.84;100.00;98775.91;1715719;83;21090;-85
2022/08/11 04:38:50;;;;;;;8.10;5.42;;;;;;;9.90;100.00;98788.40;1719974;83;21506;-81
2022/08/11 04:45:10;;;;;;;13.62;7.92;;;;;;;10.03;100.00;98793.13;1722561;82;21556;-81
2022/08/11 05:07:22;;;;;;;10.85;6.35;;;;;;;10.53;99.96;98802.24;1694257;83;21082;-85
2022/08/11 05:10:20;;;;;;;16.67;7.03;;;;;;;10.68;100.00;98802.86;1701865;83;21297;-85
2022/08/11 05:12:54;;;;;;;27.93;9.70;;;;;;;10.87;100.00;98801.92;1720650;82;21511;-85
2022/08/11 05:35:39;;;;;;;18.87;7.85;;;;;;;12.41;98.62;98817.05;1686432;83;21132;-82
2022/08/11 05:57:31;;;;;;;10.53;6.05;;;;;;;13.55;94.35;98820.86;1691094;83;21143;-81
2022/08/11 06:00:09;;;;;;;9.28;5.40;;;;;;;13.87;94.71;98814.17;1687593;84;21066;-85
2022/08/11 06:02:45;;;;;;;9.20;5.87;;;;;;;14.28;94.37;98818.80;1680639;84;21497;-85
2022/08/11 06:05:11;;;;;;;8.70;5.37;;;;;;;14.46;93.91;98826.05;1683347;83;21201;-82
2022/08/11 06:07:37;;;;;;;7.72;5.95;;;;;;;14.77;93.02;98823.85;1676363;83;21056;-82
2022/08/11 06:10:04;;;;;;;9.55;5.37;;;;;;;14.87;92.68;98820.50;1705973;82;20903;-86
2022/08/11 06:12:32;;;;;;;13.68;6.40;;;;;;;15.06;92.07;98821.13;1684842;83;20980;-82
2022/08/11 06:15:06;;;;;;;20.85;14.07;;;;;;;15.16;90.74;98819.64;1721428;82;21068;-82
2022/08/11 06:17:35;;;;;;;11.80;7.35;;;;;;;15.20;90.29;98816.02;1702148;83;21208;-85
2022/08/11 06:20:05;;;;;;;8.30;6.15;;;;;;;15.26;90.76;98816.78;1722170;81;20982;-82
2022/08/11 06:22:31;;;;;;;6.35;4.87;;;;;;;15.48;91.06;98821.17;1706443;81;21098;-85
2022/08/11 06:24:59;;;;;;;15.32;8.68;;;;;;;15.66;89.81;98810.05;1702607;82;21490;-86
2022/08/11 06:27:26;;;;;;;8.80;4.75;;;;;;;15.78;88.63;98819.16;1682303;84;21014;-85
2022/08/11 06:29:52;;;;;;;6.62;4.87;;;;;;;15.89;88.66;98813.80;1664579;84;22008;-86
2022/08/11 06:32:20;;;;;;;12.33;5.60;;;;;;;16.08;87.48;98814.64;1682776;83;21005;-82
2022/08/11 06:35:11;;;;;;;10.43;5.22;;;;;;;16.25;86.90;98820.14;1666755;83;21088;-82
2022/08/11 06:37:56;;;;;;;11.97;5.58;;;;;;;16.32;85.98;98816.45;1671242;83;21045;-82
2022/08/11 06:40:40;;;;;;;7.40;5.28;;;;;;;16.38;85.90;98811.16;1668997;84;21140;-86
2022/08/11 06:43:20;;;;;;;20.40;5.62;;;;;;;16.66;84.73;98814.78;1681534;84;21144;-82
2022/08/11 06:46:05;;;;;;;62.43;10.00;;;;;;;16.75;83.56;98810.30;1713849;81;21117;-82
2022/08/11 06:48:32;;;;;;;13.43;6.67;;;;;;;16.89;82.97;98807.02;1701480;82;21030;-82
2022/08/11 06:51:13;;;;;;;11.78;5.33;;;;;;;17.05;82.25;98810.84;1721804;81;21053;-85
2022/08/11 06:53:50;;;;;;;7.45;4.58;;;;;;;17.22;82.00;98812.98;1685884;83;21060;-82
2022/08/11 07:02:24;;;;;;;15.25;5.45;;;;;;;18.66;81.82;98792.51;1702378;81;21028;-86
2022/08/11 07:05:02;;;;;;;21.82;5.97;;;;;;;18.79;80.17;98798.45;1720295;82;21027;-86
2022/08/11 07:16:28;;;;;;;9.23;5.50;;;;;;;19.62;77.15;98789.60;1657804;84;21177;-87
2022/08/11 07:30:08;;;;;;;7.12;4.87;;;;;;;22.95;66.08;98780.27;1684602;83;21083;-83
2022/08/11 07:32:42;;;;;;;6.47;3.58;;;;;;;23.56;68.12;98779.48;1717493;81;21036;-87
2022/08/11 07:35:13;;;;;;;4.95;3.83;;;;;;;24.12;66.69;98781.84;1717419;81;21050;-87
2022/08/11 07:37:41;;;;;;;5.37;3.33;;;;;;;24.46;63.41;98774.94;1665299;83;21450;-83
2022/08/11 07:40:09;;;;;;;6.15;3.62;;;;;;;25.03;63.14;98774.27;1717340;81;21149;-83
2022/08/11 07:42:35;;;;;;;6.72;3.45;;;;;;;25.40;61.42;98779.56;1692918;82;21034;-83
2022/08/11 07:53:17;;;;;;;4.95;3.17;;;;;;;26.86;56.11;98764.65;1631317;85;21101;-83
2022/08/11 07:55:43;;;;;;;7.30;3.30;;;;;;;27.40;54.94;98758.83;1662792;83;21607;-88
2022/08/11 08:20:10;;;;;;;3.60;2.50;;;;;;;27.12;46.54;98752.22;1717533;81;21039;-87
2022/08/11 08:22:36;;;;;;;2.70;1.90;;;;;;;25.97;44.64;98753.92;1717698;81;21035;-83
2022/08/11 08:25:04;;;;;;;5.08;2.33;;;;;;;26.80;44.04;98749.44;1720624;81;21356;-86
2022/08/11 08:27:30;;;;;;;7.33;2.05;;;;;;;26.00;44.19;98744.89;1717587;81;21138;-83
2022/08/11 08:32:40;;;;;;;5.00;1.75;;;;;;;25.57;44.74;98751.44;1722759;82;21045;-88
2022/08/11 08:35:09;;;;;;;5.25;2.40;;;;;;;24.79;46.61;98752.25;1715920;82;21008;-87
2022/08/11 08:37:34;;;;;;;6.10;1.87;;;;;;;25.23;47.44;98748.27;1682433;83;21590;-87
2022/08/11 08:40:00;;;;;;;6.92;2.12;;;;;;;26.10;44.28;98743.50;1658392;84;21012;-87
2022/08/11 08:42:29;;;;;;;4.70;3.30;;;;;;;25.23;44.47;98744.69;1683081;84;21901;-84
2022/08/11 08:45:03;;;;;;;2.95;1.87;;;;;;;25.98;43.10;98740.84;1713168;81;21049;-87
2022/08/11 08:47:30;;;;;;;2.95;1.80;;;;;;;27.17;42.89;98739.97;1719060;82;21172;-87
2022/08/11 08:50:02;;;;;;;3.85;2.05;;;;;;;26.02;42.06;98745.31;1688146;83;21036;-87
2022/08/11 08:52:33;;;;;;;4.30;2.05;;;;;;;25.07;44.55;98739.73;1686020;82;20993;-83
2022/08/11 08:55:03;;;;;;;5.80;2.42;;;;;;;24.28;46.09;98740.95;1667143;83;21274;-87
2022/08/11 08:57:29;;;;;;;7.08;2.00;;;;;;;25.01;45.65;98733.61;1716614;81;21037;-87
2022/08/11 08:59:55;;;;;;;2.98;1.67;;;;;;;26.55;43.20;98726.74;1683625;83;21098;-88
2022/08/11 09:02:24;;;;;;;4.45;1.92;;;;;;;25.48;43.91;98736.95;1709071;83;20934;-87
2022/08/11 09:04:50;;;;;;;4.28;2.12;;;;;;;26.41;43.28;98725.32;1679369;83;21053;-83
2022/08/11 09:07:18;;;;;;;3.80;1.87;;;;;;;25.46;44.99;98733.72;1707679;81;21056;-84
2022/08/11 09:09:47;;;;;;;3.20;1.90;;;;;;;24.68;46.39;98736.71;1717235;81;21629;-83
2022/08/11 09:12:13;;;;;;;5.55;2.47;;;;;;;23.86;47.83;98738.55;1709557;81;21018;-83
2022/08/11 09:15:05;;;;;;;5.12;2.25;;;;;;;23.77;48.25;98737.31;1695770;81;21050;-83
2022/08/11 09:17:50;;;;;;;7.00;2.45;;;;;;;23.06;50.61;98737.78;1720388;81;21039;-83
2022/08/11 09:20:23;;;;;;;4.22;2.47;;;;;;;23.21;51.22;98738.48;1724463;81;21011;-84
2022/08/11 09:28:20;;;;;;;10.00;5.03;;;;;;;23.82;49.31;98722.41;1702939;81;20982;-87
2022/08/11 09:30:52;;;;;;;5.45;2.70;;;;;;;23.58;49.24;98720.47;1718000;81;21052;-84
2022/08/11 09:33:18;;;;;;;4.97;2.27;;;;;;;24.40;48.77;98723.71;1682341;83;21578;-84
2022/08/11 09:35:45;;;;;;;3.87;2.20;;;;;;;27.51;44.97;98715.85;1693216;82;21546;-84
2022/08/11 09:40:59;;;;;;;2.65;1.85;;;;;;;26.77;43.46;98708.49;1697312;82;21018;-87
2022/08/11 09:46:09;;;;;;;3.77;2.10;;;;;;;25.07;44.57;98712.80;1700187;81;21153;-84
2022/08/11 09:48:42;;;;;;;8.48;2.27;;;;;;;25.86;43.10;98709.28;1699959;81;20895;-87
2022/08/11 09:51:08;;;;;;;2.55;1.37;;;;;;;26.37;42.15;98704.95;1722800;81;21118;-85
2022/08/11 09:53:37;;;;;;;3.98;1.65;;;;;;;29.49;38.21;98705.33;1727322;81;21065;-87
2022/08/11 09:58:12;;;;;;;4.08;1.52;;;;;;;28.64;36.30;98701.80;1724999;81;22237;-88
2022/08/11 09:58:31;;;;;;;2.45;1.42;;;;;;;28.34;37.65;98701.86;1702003;81;21105;-88
2022/08/11 10:00:57;;;;;;;3.30;1.55;;;;;;;29.06;34.21;98706.98;1727193;81;21136;-88
2022/08/11 10:03:25;;;;;;;7.50;1.67;;;;;;;29.89;32.08;98695.75;1690072;84;21126;-89
2022/08/11 10:08:42;;;;;;;2.67;1.32;;;;;;;28.30;33.70;98683.73;1682281;83;21072;-88
2022/08/11 10:11:11;;;;;;;2.58;1.20;;;;;;;27.26;36.01;98684.31;1660580;84;21101;-89
2022/08/11 10:16:27;;;;;;;1.62;1.10;;;;;;;27.70;35.95;98678.80;1720678;81;21069;-84
2022/08/11 10:18:53;;;;;;;2.85;1.37;;;;;;;27.11;35.93;98681.68;1708272;82;21228;-84
2022/08/11 10:21:40;;;;;;;3.55;1.40;;;;;;;25.71;37.54;98671.29;1697838;82;21044;-88
2022/08/11 10:26:53;;;;;;;3.58;1.60;;;;;;;27.92;32.59;98668.71;1716559;81;21039;-84
2022/08/11 10:35:16;;;;;;;2.62;1.22;;;;;;;29.29;32.67;98666.87;1722769;81;21105;-85
2022/08/11 10:37:43;;;;;;;2.77;1.50;;;;;;;29.28;31.72;98668.86;1731468;81;21291;-89
2022/08/11 10:40:11;;;;;;;3.20;1.75;;;;;;;30.72;29.86;98658.50;1733695;80;21036;-89
2022/08/11 10:48:06;;;;;;;3.00;1.30;;;;;;;31.00;30.35;98647.91;1659139;84;21147;-89
2022/08/11 10:58:48;;;;;;;1.30;1.00;;;;;;;34.94;25.20;98630.97;1678277;83;21104;-84
2022/08/11 11:01:27;;;;;;;3.45;1.12;;;;;;;35.25;23.19;98618.95;1687848;83;21094;-85
2022/08/11 11:04:14;;;;;;;1.67;0.98;;;;;;;31.63;27.16;98625.22;1715963;81;21141;-84
2022/08/11 11:07:16;;;;;;;1.87;1.25;;;;;;;29.75;30.18;98628.08;1721623;82;21181;-85
2022/08/11 11:09:48;;;;;;;2.12;1.22;;;;;;;28.36;31.18;98626.45;1717496;81;21067;-89
2022/08/11 11:18:10;;;;;;;4.47;1.67;;;;;;;25.85;36.67;98618.05;1718558;81;21063;-85
2022/08/11 11:21:05;;;;;;;3.62;1.82;;;;;;;25.09;40.33;98618.18;1718637;81;21429;-88
2022/08/11 11:24:10;;;;;;;4.55;1.82;;;;;;;25.14;40.81;98612.37;1719005;81;21492;-85
2022/08/11 11:27:06;;;;;;;3.83;1.82;;;;;;;24.68;41.82;98605.91;1717205;81;21100;-84
2022/08/11 11:29:58;;;;;;;4.62;2.30;;;;;;;24.78;41.21;98610.09;1683072;83;21003;-88
2022/08/11 11:32:55;;;;;;;2.70;1.65;;;;;;;24.63;41.80;98606.78;1714033;81;21743;-84
2022/08/11 11:35:38;;;;;;;6.37;1.70;;;;;;;24.48;43.50;98612.53;1641051;85;21517;-88
2022/08/11 11:38:08;;;;;;;4.83;2.00;;;;;;;24.51;41.94;98608.23;1654947;84;21492;-84
2022/08/11 11:40:33;;;;;;;3.95;1.85;;;;;;;24.42;41.67;98603.68;1640841;85;21084;-84
2022/08/11 11:42:59;;;;;;;3.83;1.60;;;;;;;24.31;42.15;98600.40;1717755;81;20973;-84
2022/08/11 11:45:25;;;;;;;2.92;1.32;;;;;;;24.67;41.51;98595.99;1723028;81;21840;-88
2022/08/11 11:47:53;;;;;;;3.85;1.50;;;;;;;25.12;41.32;98585.56;1720086;81;20896;-88
2022/08/11 11:50:33;;;;;;;5.10;2.00;;;;;;;25.22;41.07;98593.34;1717194;81;21037;-85
2022/08/11 11:53:00;;;;;;;4.30;1.70;;;;;;;25.19;41.64;98588.50;1723188;81;21687;-89
2022/08/11 11:55:26;;;;;;;2.72;1.52;;;;;;;25.19;40.84;98588.50;1724628;81;21136;-89
2022/08/11 12:03:23;;;;;;;3.08;1.60;;;;;;;24.74;41.70;98580.12;1714888;81;21501;-85
2022/08/11 12:05:51;;;;;;;2.80;2.00;;;;;;;24.61;42.06;98581.38;1716812;82;21511;-87
2022/08/11 12:08:17;;;;;;;4.95;2.27;;;;;;;24.86;41.56;98574.45;1676264;85;21086;-83
2022/08/11 12:13:49;;;;;;;6.50;1.32;;;;;;;25.59;39.31;98578.45;1720154;81;20995;-83
2022/08/11 12:16:20;;;;;;;2.92;1.22;;;;;;;25.35;37.46;98569.83;1682221;83;21084;-86
2022/08/11 12:18:48;;;;;;;7.17;2.05;;;;;;;24.50;39.63;98583.89;1666679;83;21200;-86
2022/08/11 12:21:14;;;;;;;7.70;1.60;;;;;;;23.58;42.70;98591.27;1687876;83;21195;-86
2022/08/11 12:29:10;;;;;;;4.03;1.22;;;;;;;22.12;45.21;98612.07;1668272;83;21585;-82
2022/08/11 12:31:38;;;;;;;4.72;1.07;;;;;;;21.38;51.22;98604.88;1669475;83;21133;-83
2022/08/11 12:34:09;;;;;;;4.10;1.15;;;;;;;21.05;52.08;98603.95;1663110;84;21049;-87
2022/08/11 12:36:40;;;;;;;7.30;1.30;;;;;;;20.50;54.52;98604.89;1667650;83;21651;-87
2022/08/11 12:39:08;;;;;;;2.15;1.27;;;;;;;20.05;55.57;98599.84;1689348;83;21172;-83
2022/08/11 12:47:03;;;;;;;2.92;1.47;;;;;;;19.69;57.41;98568.64;1685996;83;21187;-82
2022/08/11 12:52:24;;;;;;;6.45;1.90;;;;;;;20.67;58.96;98579.22;1736097;81;21026;-87
2022/08/11 12:55:00;;;;;;;5.47;1.52;;;;;;;21.89;57.04;98579.35;1730729;82;21606;-82
2022/08/11 13:05:57;;;;;;;2.33;1.45;;;;;;;29.31;42.04;98562.06;1664690;83;21539;-88
2022/08/11 13:08:24;;;;;;;5.87;1.30;;;;;;;28.32;42.40;98565.72;1682788;83;21673;-87
2022/08/11 13:13:35;;;;;;;3.12;1.57;;;;;;;25.35;48.19;98553.78;1690159;84;21113;-87
2022/08/11 13:16:01;;;;;;;4.37;1.80;;;;;;;25.85;47.31;98555.61;1721208;81;21141;-87
2022/08/11 13:18:27;;;;;;;3.95;2.00;;;;;;;25.26;48.42;98563.11;1721464;81;21405;-83
2022/08/11 13:20:54;;;;;;;13.38;3.02;;;;;;;24.66;48.82;98568.65;1728629;81;21555;-87
2022/08/11 13:23:20;;;;;;;5.60;2.00;;;;;;;24.77;48.89;98568.31;1726717;81;21078;-84
2022/08/11 13:25:47;;;;;;;3.75;1.52;;;;;;;24.70;50.60;98573.71;1691043;83;21594;-83
2022/08/11 13:28:13;;;;;;;5.00;1.47;;;;;;;26.15;47.06;98568.27;1712361;81;21101;-84
2022/08/11 13:33:23;;;;;;;3.22;1.62;;;;;;;26.83;44.81;98564.62;1719371;81;21401;-84
2022/08/11 13:35:51;;;;;;;2.52;1.57;;;;;;;30.09;40.92;98546.80;1720955;81;21011;-85
2022/08/11 13:38:18;;;;;;;;;;;;;;;30.09;40.92;98546.80;1734622;81;21067;-85
2022/08/11 13:40:44;;;;;;;1.47;0.88;;;;;;;31.15;36.00;98543.94;1722668;81;21021;-89
2022/08/11 13:43:10;;;;;;;1.70;0.85;;;;;;;31.76;32.56;98530.31;1677724;83;21017;-87
2022/08/11 13:45:36;;;;;;;2.17;0.93;;;;;;;31.49;34.28;98531.45;1657969;84;20987;-88
2022/08/11 13:48:03;;;;;;;1.37;0.90;;;;;;;31.93;31.18;98527.43;1657289;83;20998;-88
2022/08/11 13:53:17;;;;;;;2.83;0.95;;;;;;;29.91;33.33;98532.75;1622342;83;21702;-89
2022/08/11 13:55:42;;;;;;;3.22;1.07;;;;;;;27.74;34.87;98553.77;1673333;83;20974;-88
2022/08/11 13:58:11;;;;;;;4.75;1.02;;;;;;;25.89;40.47;98568.95;1675310;83;20915;-84
2022/08/11 14:00:37;;;;;;;3.47;1.57;;;;;;;25.21;42.38;98578.67;1663399;84;20962;-84
2022/08/11 14:03:05;;;;;;;12.85;1.50;;;;;;;23.53;45.76;98579.09;1671030;84;21021;-84
2022/08/11 14:05:38;;;;;;;6.00;1.50;;;;;;;22.01;51.51;98578.56;1674044;84;21837;-84
2022/08/11 14:08:08;;;;;;;2.98;1.45;;;;;;;21.78;51.58;98584.23;1677646;84;21031;-88
2022/08/11 14:10:35;;;;;;;5.42;1.67;;;;;;;21.23;54.57;98594.42;1678031;84;21082;-84
2022/08/11 14:15:53;;;;;;;4.58;1.30;;;;;;;20.40;59.90;98595.03;1721458;81;21022;-84
2022/08/11 14:18:28;;;;;;;4.12;1.70;;;;;;;19.94;61.03;98595.27;1722253;81;21894;-83
2022/08/11 14:23:44;;;;;;;3.33;1.42;;;;;;;19.08;69.52;98593.36;1739114;81;21033;-83
2022/08/11 14:26:28;;;;;;;5.22;2.22;;;;;;;18.70;72.76;98595.05;1693563;82;21481;-83
2022/08/11 14:29:01;;;;;;;6.53;2.35;;;;;;;18.64;75.00;98597.68;1712949;82;21536;-87
2022/08/11 14:31:30;;;;;;;4.58;2.35;;;;;;;18.65;72.03;98596.55;1719484;81;21117;-87
2022/08/11 14:34:01;;;;;;;6.78;2.30;;;;;;;18.84;69.17;98594.36;1683663;83;21078;-83
2022/08/11 14:36:36;;;;;;;4.10;1.75;;;;;;;18.88;68.07;98596.16;1703694;82;20990;-88
2022/08/11 14:39:07;;;;;;;3.85;2.00;;;;;;;18.97;70.01;98603.58;1718681;81;21505;-83
2022/08/11 14:47:05;;;;;;;3.58;1.70;;;;;;;19.12;68.38;98603.92;1714313;82;21027;-87
2022/08/11 14:49:35;;;;;;;3.10;2.00;;;;;;;19.16;68.28;98601.36;1721614;81;21042;-83
2022/08/11 14:52:09;;;;;;;4.37;1.70;;;;;;;19.24;68.08;98603.31;1703113;81;21037;-87
2022/08/11 14:57:19;;;;;;;5.40;2.50;;;;;;;19.23;72.69;98613.22;1721870;83;21071;-87
2022/08/11 14:59:50;;;;;;;7.50;2.42;;;;;;;19.21;74.73;98610.00;1712974;82;20872;-87
2022/08/11 15:04:58;;;;;;;4.95;2.05;;;;;;;19.50;70.46;98608.00;1714740;83;21743;-87
2022/08/11 15:07:28;;;;;;;4.45;1.90;;;;;;;19.45;72.13;98613.08;1715745;82;20954;-86
2022/08/11 15:09:51;;;;;;;4.30;1.80;;;;;;;19.47;73.84;98607.25;1726081;82;22115;-87
2022/08/11 15:12:18;;;;;;;4.10;2.30;;;;;;;19.54;72.30;98607.58;1728423;82;21535;-83
2022/08/11 15:17:32;;;;;;;5.60;2.12;;;;;;;19.40;75.56;98600.89;1692755;84;21113;-86
2022/08/11 15:25:26;;;;;;;3.20;1.90;;;;;;;19.58;71.97;98582.48;1719764;82;21070;-86
2022/08/11 15:39:05;;;;;;;6.95;1.98;;;;;;;19.76;68.47;98586.83;1719762;82;21483;-87
2022/08/11 15:47:15;;;;;;;4.87;2.25;;;;;;;20.43;67.49;98575.70;1681895;83;21587;-87
2022/08/11 15:49:41;;;;;;;4.58;1.87;;;;;;;20.43;67.49;98575.70;1654364;86;21858;-87
2022/08/11 15:52:11;;;;;;;4.65;2.08;;;;;;;21.35;66.24;98560.05;1616790;85;20981;-83
2022/08/11 15:54:41;;;;;;;7.05;1.80;;;;;;;22.11;63.71;98569.88;1721342;82;21013;-83
2022/08/11 15:57:07;;;;;;;6.80;1.98;;;;;;;22.64;61.83;98572.78;1719164;82;21159;-88
2022/08/11 16:04:50;;;;;;;7.33;1.70;;;;;;;23.59;58.13;98572.75;1723262;82;21000;-88
2022/08/11 16:07:25;;;;;;;2.33;1.50;;;;;;;23.89;57.46;98573.19;1655116;85;21058;-87
2022/08/11 16:09:52;;;;;;;3.30;1.45;;;;;;;23.86;55.29;98575.30;1678504;85;21046;-87
2022/08/11 16:12:22;;;;;;;4.53;1.60;;;;;;;23.49;55.75;98566.30;1689184;84;21085;-88
2022/08/11 16:17:44;;;;;;;2.20;1.62;;;;;;;23.60;57.11;98568.27;1725105;83;21424;-87
2022/08/11 16:20:12;;;;;;;4.65;2.10;;;;;;;23.40;55.96;98566.45;1697141;83;21116;-88
2022/08/11 16:22:41;;;;;;;3.72;2.30;;;;;;;22.98;56.92;98569.55;1725349;81;21061;-88
2022/08/11 16:25:08;;;;;;;5.97;3.08;;;;;;;23.03;56.78;98567.14;1719693;83;21483;-87
2022/08/11 16:27:38;;;;;;;3.67;2.15;;;;;;;22.65;57.80;98564.75;1706713;82;26907;-84
2022/08/11 16:30:05;;;;;;;3.00;1.72;;;;;;;22.17;59.19;98558.05;1724419;82;21554;-87
2022/08/11 16:32:32;;;;;;;2.10;1.47;;;;;;;21.71;59.55;98555.86;1721374;82;21010;-84
2022/08/11 16:40:30;;;;;;;4.95;1.70;;;;;;;21.14;58.59;98553.73;1682455;84;21103;-87
2022/08/11 16:48:29;;;;;;;5.85;2.90;;;;;;;20.70;60.54;98553.23;1727430;83;21042;-87
2022/08/11 16:50:55;;;;;;;2.72;2.10;;;;;;;20.51;62.03;98545.98;1726572;82;21126;-87
2022/08/11 16:53:21;;;;;;;6.15;2.87;;;;;;;20.29;62.37;98554.70;1727529;82;21210;-88
2022/08/11 16:55:48;;;;;;;3.45;2.22;;;;;;;20.16;62.75;98548.83;1714387;83;21018;-83
2022/08/11 17:00:58;;;;;;;10.32;5.22;;;;;;;20.06;63.69;98545.64;1727116;81;21043;-87
2022/08/11 17:14:45;;;;;;;6.50;2.12;;;;;;;19.47;66.78;98555.84;1691994;84;21117;-83
2022/08/11 17:17:19;;;;;;;126.60;28.32;;;;;;;19.40;66.27;98551.44;1727215;82;21106;-87
2022/08/11 17:19:48;;;;;;;53.95;14.45;;;;;;;19.38;67.21;98549.55;1677578;84;21338;-82
2022/08/11 17:25:00;;;;;;;7.30;4.90;;;;;;;19.26;66.67;98545.29;1687839;83;21094;-83
2022/08/11 17:27:25;;;;;;;6.15;3.75;;;;;;;19.23;66.76;98548.13;1703981;82;20956;-83